createdAt,value
2017-03-19T00:00:12.927Z,10.22
2017-03-19T00:00:53.420Z,10.29
2017-03-19T00:01:33.951Z,10.22
2017-03-19T00:02:14.444Z,10.22
2017-03-19T00:02:54.951Z,10.22
2017-03-19T00:03:35.480Z,10.18
2017-03-19T00:04:16.004Z,10.22
2017-03-19T00:04:56.519Z,10.25
2017-03-19T00:05:37.041Z,10.23
2017-03-19T00:06:17.554Z,10.22
2017-03-19T00:06:58.058Z,10.27
2017-03-19T00:07:38.575Z,10.25
2017-03-19T00:08:19.094Z,10.22
2017-03-19T00:08:59.618Z,10.22
2017-03-19T00:09:40.133Z,10.22
2017-03-19T00:10:20.627Z,10.23
2017-03-19T00:11:01.133Z,10.18
2017-03-19T00:11:41.662Z,10.2
2017-03-19T00:12:22.154Z,10.18
2017-03-19T00:13:02.670Z,10.2
2017-03-19T00:13:43.185Z,10.23
2017-03-19T00:14:23.679Z,10.15
2017-03-19T00:15:04.185Z,10.18
2017-03-19T00:15:44.697Z,10.23
2017-03-19T00:16:25.206Z,10.15
2017-03-19T00:17:05.711Z,10.22
2017-03-19T00:17:46.228Z,10.15
2017-03-19T00:18:26.727Z,10.2
2017-03-19T00:19:07.213Z,10.23
2017-03-19T00:19:47.723Z,10.18
2017-03-19T00:20:28.231Z,10.17
2017-03-19T00:21:08.745Z,10.22
2017-03-19T00:21:49.239Z,10.2
2017-03-19T00:22:29.743Z,10.17
2017-03-19T00:23:10.256Z,10.2
2017-03-19T00:23:50.778Z,10.15
2017-03-19T00:24:31.282Z,10.17
2017-03-19T00:25:11.788Z,10.15
2017-03-19T00:25:52.284Z,10.23
2017-03-19T00:26:32.800Z,10.18
2017-03-19T00:27:13.322Z,10.23
2017-03-19T00:27:53.825Z,10.26
2017-03-19T00:28:34.327Z,10.18
2017-03-19T00:29:14.916Z,10.22
2017-03-19T00:29:55.426Z,10.2
2017-03-19T00:30:35.945Z,10.2
2017-03-19T00:31:16.460Z,10.22
2017-03-19T00:31:56.963Z,10.23
2017-03-19T00:32:37.463Z,10.25
2017-03-19T00:33:17.989Z,10.26
2017-03-19T00:33:58.503Z,10.22
2017-03-19T00:34:39.003Z,10.2
2017-03-19T00:35:19.489Z,10.18
2017-03-19T00:35:59.995Z,10.2
2017-03-19T00:36:40.502Z,10.22
2017-03-19T00:37:21.024Z,10.2
2017-03-19T00:38:01.524Z,10.17
2017-03-19T00:38:42.053Z,10.22
2017-03-19T00:39:22.548Z,10.14
2017-03-19T00:40:03.036Z,10.12
2017-03-19T00:40:43.560Z,10.17
2017-03-19T00:41:24.054Z,10.14
2017-03-19T00:42:04.569Z,10.22
2017-03-19T00:42:45.098Z,10.17
2017-03-19T00:43:25.558Z,10.18
2017-03-19T00:44:06.082Z,10.18
2017-03-19T00:44:46.577Z,10.14
2017-03-19T00:45:27.073Z,10.18
2017-03-19T00:46:07.585Z,10.23
2017-03-19T00:46:48.070Z,10.17
2017-03-19T00:47:28.581Z,10.18
2017-03-19T00:48:09.080Z,10.17
2017-03-19T00:48:49.587Z,10.23
2017-03-19T00:49:30.107Z,10.17
2017-03-19T00:50:10.588Z,10.17
2017-03-19T00:50:51.094Z,10.2
2017-03-19T00:51:31.591Z,10.25
2017-03-19T00:52:12.108Z,10.2
2017-03-19T00:52:52.635Z,10.2
2017-03-19T00:53:33.120Z,10.2
2017-03-19T00:54:13.647Z,10.17
2017-03-19T00:54:54.146Z,10.17
2017-03-19T00:55:34.652Z,10.14
2017-03-19T00:56:15.154Z,10.08
2017-03-19T00:56:55.660Z,10.14
2017-03-19T00:57:36.168Z,10.09
2017-03-19T00:58:16.687Z,10.11
2017-03-19T00:58:57.202Z,10.08
2017-03-19T00:59:37.720Z,10.11
2017-03-19T01:00:18.232Z,10.14
2017-03-19T01:00:58.764Z,10.07
2017-03-19T01:01:39.257Z,10.04
2017-03-19T01:02:19.787Z,10.09
2017-03-19T01:03:00.308Z,10.11
2017-03-19T01:03:40.774Z,10.05
2017-03-19T01:04:21.298Z,10.09
2017-03-19T01:05:01.807Z,10.07
2017-03-19T01:05:42.305Z,10.07
2017-03-19T01:06:22.806Z,10.07
2017-03-19T01:07:03.336Z,10.08
2017-03-19T01:07:43.860Z,10.11
2017-03-19T01:08:24.359Z,10.15
2017-03-19T01:09:04.878Z,10.15
2017-03-19T01:09:45.392Z,10.12
2017-03-19T01:10:25.897Z,10.07
2017-03-19T01:11:06.409Z,10.14
2017-03-19T01:11:46.918Z,10.14
2017-03-19T01:12:27.451Z,10.11
2017-03-19T01:13:07.964Z,10.15
2017-03-19T01:13:48.472Z,10.14
2017-03-19T01:14:28.971Z,10.17
2017-03-19T01:15:09.484Z,10.17
2017-03-19T01:15:49.999Z,10.18
2017-03-19T01:16:30.511Z,10.14
2017-03-19T01:17:11.026Z,10.09
2017-03-19T01:17:51.535Z,10.11
2017-03-19T01:18:32.053Z,10.09
2017-03-19T01:19:12.562Z,10.04
2017-03-19T01:19:53.077Z,10.04
2017-03-19T01:20:33.590Z,10.12
2017-03-19T01:21:14.095Z,10.08
2017-03-19T01:21:54.607Z,10.08
2017-03-19T01:22:35.129Z,10.05
2017-03-19T01:23:15.643Z,10.02
2017-03-19T01:23:56.157Z,10.09
2017-03-19T01:24:36.658Z,10.08
2017-03-19T01:25:17.180Z,10.04
2017-03-19T01:25:57.717Z,10.08
2017-03-19T01:26:38.229Z,10.12
2017-03-19T01:27:18.802Z,10.18
2017-03-19T01:27:59.310Z,10.07
2017-03-19T01:28:39.825Z,10.14
2017-03-19T01:29:20.330Z,10.09
2017-03-19T01:30:00.849Z,10.08
2017-03-19T01:30:41.349Z,10.09
2017-03-19T01:31:21.858Z,10.07
2017-03-19T01:32:02.352Z,10.14
2017-03-19T01:32:42.873Z,10.07
2017-03-19T01:33:23.398Z,10.14
2017-03-19T01:34:03.922Z,10.12
2017-03-19T01:34:44.421Z,10.04
2017-03-19T01:35:24.928Z,10.12
2017-03-19T01:36:05.440Z,10.12
2017-03-19T01:36:45.965Z,10.14
2017-03-19T01:37:26.455Z,10.2
2017-03-19T01:38:06.973Z,10.14
2017-03-19T01:38:47.481Z,10.2
2017-03-19T01:39:27.993Z,10.2
2017-03-19T01:40:08.502Z,10.12
2017-03-19T01:40:49.015Z,10.17
2017-03-19T01:41:29.541Z,10.07
2017-03-19T01:42:10.053Z,10.14
2017-03-19T01:42:50.571Z,10.12
2017-03-19T01:43:31.092Z,10.09
2017-03-19T01:44:11.615Z,10.07
2017-03-19T01:44:52.144Z,10.11
2017-03-19T01:45:32.670Z,10.09
2017-03-19T01:46:13.186Z,10.14
2017-03-19T01:46:53.683Z,10.09
2017-03-19T01:47:34.206Z,10.08
2017-03-19T01:48:14.706Z,10.14
2017-03-19T01:48:55.276Z,10.09
2017-03-19T01:49:35.787Z,10.08
2017-03-19T01:50:16.288Z,10.05
2017-03-19T01:50:56.793Z,10.15
2017-03-19T01:51:37.306Z,10.14
2017-03-19T01:52:17.823Z,10.09
2017-03-19T01:52:58.357Z,10.15
2017-03-19T01:53:38.842Z,10.18
2017-03-19T01:54:19.365Z,10.12
2017-03-19T01:54:59.874Z,10.14
2017-03-19T01:55:40.383Z,10.17
2017-03-19T01:56:20.895Z,10.15
2017-03-19T01:57:01.397Z,10.14
2017-03-19T01:57:41.922Z,10.2
2017-03-19T01:58:22.423Z,10.23
2017-03-19T01:59:02.935Z,10.17
2017-03-19T01:59:43.448Z,10.18
2017-03-19T02:00:23.952Z,10.17
2017-03-19T02:01:04.458Z,10.17
2017-03-19T02:01:44.972Z,10.2
2017-03-19T02:02:25.471Z,10.2
2017-03-19T02:03:05.986Z,10.25
2017-03-19T02:03:46.496Z,10.2
2017-03-19T02:04:26.995Z,10.14
2017-03-19T02:05:07.509Z,10.18
2017-03-19T02:05:48.017Z,10.15
2017-03-19T02:06:28.526Z,10.17
2017-03-19T02:07:09.045Z,10.09
2017-03-19T02:07:49.557Z,10.14
2017-03-19T02:08:30.054Z,10.08
2017-03-19T02:09:10.571Z,10.07
2017-03-19T02:09:51.090Z,10.05
2017-03-19T02:10:31.597Z,10.07
2017-03-19T02:11:12.107Z,10.08
2017-03-19T02:11:52.618Z,10.12
2017-03-19T02:12:33.139Z,10.08
2017-03-19T02:13:13.633Z,10.14
2017-03-19T02:13:54.132Z,10.18
2017-03-19T02:14:34.642Z,10.12
2017-03-19T02:15:15.144Z,10.2
2017-03-19T02:15:55.656Z,10.2
2017-03-19T02:16:36.167Z,10.17
2017-03-19T02:17:16.687Z,10.2
2017-03-19T02:17:57.217Z,10.18
2017-03-19T02:18:37.782Z,10.22
2017-03-19T02:19:18.264Z,10.23
2017-03-19T02:19:58.747Z,10.22
2017-03-19T02:20:39.244Z,10.2
2017-03-19T02:21:19.765Z,10.2
2017-03-19T02:22:00.294Z,10.22
2017-03-19T02:22:41.749Z,10.26
2017-03-19T02:23:22.260Z,10.26
2017-03-19T02:24:02.769Z,10.27
2017-03-19T02:24:43.274Z,10.26
2017-03-19T02:25:23.791Z,10.27
2017-03-19T02:26:04.292Z,10.27
2017-03-19T02:26:44.800Z,10.27
2017-03-19T02:27:25.344Z,10.25
2017-03-19T02:28:05.845Z,10.27
2017-03-19T02:28:46.348Z,10.23
2017-03-19T02:29:26.891Z,10.22
2017-03-19T02:30:07.398Z,10.27
2017-03-19T02:30:47.904Z,10.33
2017-03-19T02:31:28.421Z,10.26
2017-03-19T02:32:08.936Z,10.29
2017-03-19T02:32:49.449Z,10.36
2017-03-19T02:33:29.971Z,10.33
2017-03-19T02:34:10.495Z,10.36
2017-03-19T02:34:51.008Z,10.4
2017-03-19T02:35:31.494Z,10.32
2017-03-19T02:36:12.010Z,10.29
2017-03-19T02:36:52.503Z,10.34
2017-03-19T02:37:33.025Z,10.36
2017-03-19T02:38:13.545Z,10.32
2017-03-19T02:38:54.043Z,10.32
2017-03-19T02:39:34.576Z,10.3
2017-03-19T02:40:15.092Z,10.32
2017-03-19T02:40:55.598Z,10.3
2017-03-19T02:41:36.109Z,10.33
2017-03-19T02:42:16.609Z,10.36
2017-03-19T02:42:57.104Z,10.33
2017-03-19T02:43:37.622Z,10.33
2017-03-19T02:44:18.150Z,10.29
2017-03-19T02:44:58.708Z,10.29
2017-03-19T02:45:39.207Z,10.32
2017-03-19T02:46:19.713Z,10.3
2017-03-19T02:47:00.236Z,10.32
2017-03-19T02:47:40.741Z,10.3
2017-03-19T02:48:21.235Z,10.36
2017-03-19T02:49:01.758Z,10.26
2017-03-19T02:49:42.256Z,10.33
2017-03-19T02:50:22.768Z,10.29
2017-03-19T02:51:03.273Z,10.33
2017-03-19T02:51:43.809Z,10.3
2017-03-19T02:52:24.311Z,10.3
2017-03-19T02:53:04.805Z,10.33
2017-03-19T02:53:45.320Z,10.32
2017-03-19T02:54:25.839Z,10.34
2017-03-19T02:55:06.348Z,10.36
2017-03-19T02:55:46.867Z,10.36
2017-03-19T02:56:27.361Z,10.42
2017-03-19T02:57:07.877Z,10.41
2017-03-19T02:57:48.393Z,10.34
2017-03-19T02:58:28.895Z,10.42
2017-03-19T02:59:09.425Z,10.38
2017-03-19T02:59:49.923Z,10.34
2017-03-19T03:00:30.440Z,10.38
2017-03-19T03:01:10.948Z,10.4
2017-03-19T03:01:51.477Z,10.41
2017-03-19T03:02:31.991Z,10.38
2017-03-19T03:03:12.491Z,10.4
2017-03-19T03:03:53.007Z,10.44
2017-03-19T03:04:33.523Z,10.38
2017-03-19T03:05:14.027Z,10.41
2017-03-19T03:05:54.521Z,10.42
2017-03-19T03:06:35.040Z,10.38
2017-03-19T03:07:15.566Z,10.38
2017-03-19T03:07:56.083Z,10.38
2017-03-19T03:08:36.591Z,10.42
2017-03-19T03:09:17.113Z,10.42
2017-03-19T03:09:57.633Z,10.41
2017-03-19T03:10:38.148Z,10.42
2017-03-19T03:11:18.666Z,10.44
2017-03-19T03:11:59.179Z,10.41
2017-03-19T03:12:39.683Z,10.42
2017-03-19T03:13:20.189Z,10.42
2017-03-19T03:14:00.689Z,10.44
2017-03-19T03:14:41.197Z,10.36
2017-03-19T03:15:21.705Z,10.4
2017-03-19T03:16:02.211Z,10.4
2017-03-19T03:16:42.734Z,10.45
2017-03-19T03:17:23.253Z,10.47
2017-03-19T03:18:03.767Z,10.4
2017-03-19T03:18:44.284Z,10.41
2017-03-19T03:19:24.777Z,10.48
2017-03-19T03:20:05.295Z,10.4
2017-03-19T03:20:45.809Z,10.47
2017-03-19T03:21:26.311Z,10.47
2017-03-19T03:22:06.813Z,10.53
2017-03-19T03:22:47.333Z,10.59
2017-03-19T03:23:27.837Z,10.52
2017-03-19T03:24:08.338Z,10.56
2017-03-19T03:24:48.852Z,10.6
2017-03-19T03:25:29.360Z,10.63
2017-03-19T03:26:09.860Z,10.61
2017-03-19T03:26:50.372Z,10.67
2017-03-19T03:27:30.882Z,10.63
2017-03-19T03:28:11.380Z,10.59
2017-03-19T03:28:51.891Z,10.66
2017-03-19T03:29:32.417Z,10.61
2017-03-19T03:30:12.944Z,10.59
2017-03-19T03:30:53.445Z,10.64
2017-03-19T03:31:33.965Z,10.61
2017-03-19T03:32:14.474Z,10.68
2017-03-19T03:32:54.986Z,10.66
2017-03-19T03:33:35.509Z,10.67
2017-03-19T03:34:16.014Z,10.67
2017-03-19T03:34:56.521Z,10.64
2017-03-19T03:35:37.048Z,10.67
2017-03-19T03:36:17.564Z,10.67
2017-03-19T03:36:58.076Z,10.67
2017-03-19T03:37:38.573Z,10.73
2017-03-19T03:38:19.092Z,10.73
2017-03-19T03:38:59.593Z,10.73
2017-03-19T03:39:40.102Z,10.7
2017-03-19T03:40:20.615Z,10.74
2017-03-19T03:41:01.141Z,10.64
2017-03-19T03:41:41.737Z,10.67
2017-03-19T03:42:22.244Z,10.73
2017-03-19T03:43:02.791Z,10.68
2017-03-19T03:43:43.248Z,10.67
2017-03-19T03:44:23.762Z,10.7
2017-03-19T03:45:04.274Z,10.64
2017-03-19T03:45:44.791Z,10.68
2017-03-19T03:46:25.289Z,10.76
2017-03-19T03:47:05.801Z,10.78
2017-03-19T03:47:46.343Z,10.79
2017-03-19T03:48:26.855Z,10.74
2017-03-19T03:49:07.371Z,10.74
2017-03-19T03:49:47.861Z,10.76
2017-03-19T03:50:28.384Z,10.73
2017-03-19T03:51:08.887Z,10.74
2017-03-19T03:51:49.396Z,10.74
2017-03-19T03:52:29.943Z,10.7
2017-03-19T03:53:10.420Z,10.74
2017-03-19T03:53:50.973Z,10.81
2017-03-19T03:54:31.438Z,10.78
2017-03-19T03:55:11.943Z,10.73
2017-03-19T03:55:52.434Z,10.82
2017-03-19T03:56:32.950Z,10.76
2017-03-19T03:57:13.455Z,10.82
2017-03-19T03:57:53.976Z,10.85
2017-03-19T03:58:34.488Z,10.82
2017-03-19T03:59:15.003Z,10.92
2017-03-19T03:59:55.517Z,10.84
2017-03-19T04:00:36.025Z,10.89
2017-03-19T04:01:16.518Z,10.89
2017-03-19T04:01:57.039Z,10.85
2017-03-19T04:02:37.535Z,10.86
2017-03-19T04:03:18.049Z,10.81
2017-03-19T04:03:58.581Z,10.88
2017-03-19T04:04:39.053Z,10.91
2017-03-19T04:05:19.650Z,10.88
2017-03-19T04:06:00.114Z,10.94
2017-03-19T04:06:40.650Z,10.94
2017-03-19T04:07:21.154Z,10.96
2017-03-19T04:08:01.682Z,11
2017-03-19T04:08:42.186Z,10.96
2017-03-19T04:09:22.727Z,11
2017-03-19T04:10:03.211Z,10.94
2017-03-19T04:10:43.754Z,10.91
2017-03-19T04:11:24.229Z,10.94
2017-03-19T04:12:04.727Z,10.97
2017-03-19T04:12:45.246Z,10.86
2017-03-19T04:13:25.764Z,10.82
2017-03-19T04:14:06.273Z,10.88
2017-03-19T04:14:46.779Z,10.85
2017-03-19T04:15:27.279Z,10.86
2017-03-19T04:16:07.796Z,10.89
2017-03-19T04:16:48.341Z,10.91
2017-03-19T04:17:28.815Z,10.79
2017-03-19T04:18:09.329Z,10.85
2017-03-19T04:18:49.829Z,10.88
2017-03-19T04:19:30.333Z,10.88
2017-03-19T04:20:10.845Z,10.88
2017-03-19T04:20:51.357Z,10.84
2017-03-19T04:21:31.859Z,10.84
2017-03-19T04:22:12.371Z,10.85
2017-03-19T04:22:52.883Z,10.86
2017-03-19T04:23:33.374Z,10.85
2017-03-19T04:24:13.885Z,10.96
2017-03-19T04:24:54.401Z,10.88
2017-03-19T04:25:34.913Z,10.84
2017-03-19T04:26:15.426Z,10.91
2017-03-19T04:26:55.949Z,10.89
2017-03-19T04:27:36.468Z,10.89
2017-03-19T04:28:17.026Z,10.96
2017-03-19T04:28:57.586Z,10.86
2017-03-19T04:29:38.103Z,10.86
2017-03-19T04:30:18.608Z,10.91
2017-03-19T04:30:59.107Z,10.92
2017-03-19T04:31:39.647Z,10.86
2017-03-19T04:32:20.197Z,10.89
2017-03-19T04:33:00.755Z,10.85
2017-03-19T04:33:41.326Z,10.86
2017-03-19T04:34:21.880Z,10.88
2017-03-19T04:35:02.425Z,10.81
2017-03-19T04:35:42.943Z,10.85
2017-03-19T04:36:23.461Z,10.84
2017-03-19T04:37:04.043Z,10.91
2017-03-19T04:37:44.599Z,10.92
2017-03-19T04:38:25.129Z,10.81
2017-03-19T04:39:05.679Z,10.92
2017-03-19T04:39:46.209Z,10.85
2017-03-19T04:40:26.867Z,10.92
2017-03-19T04:41:07.470Z,10.91
2017-03-19T04:41:48.038Z,10.88
2017-03-19T04:42:28.595Z,10.92
2017-03-19T04:43:09.203Z,10.94
2017-03-19T04:43:49.724Z,11
2017-03-19T04:44:30.285Z,10.94
2017-03-19T04:45:10.840Z,10.92
2017-03-19T04:45:51.386Z,10.85
2017-03-19T04:46:31.935Z,11
2017-03-19T04:47:12.516Z,10.99
2017-03-19T04:47:52.976Z,10.94
2017-03-19T04:48:33.612Z,10.96
2017-03-19T04:49:14.091Z,10.88
2017-03-19T04:49:54.641Z,10.92
2017-03-19T04:50:35.194Z,10.94
2017-03-19T04:51:15.777Z,10.88
2017-03-19T04:51:56.320Z,10.96
2017-03-19T04:52:36.844Z,10.91
2017-03-19T04:53:17.390Z,10.99
2017-03-19T04:53:57.948Z,10.85
2017-03-19T04:54:38.466Z,10.91
2017-03-19T04:55:19.131Z,10.89
2017-03-19T04:55:59.758Z,10.94
2017-03-19T04:56:40.272Z,10.84
2017-03-19T04:57:20.847Z,10.99
2017-03-19T04:58:01.353Z,10.89
2017-03-19T04:58:41.865Z,10.96
2017-03-19T04:59:22.457Z,10.82
2017-03-19T05:00:02.990Z,10.89
2017-03-19T05:00:43.625Z,10.92
2017-03-19T05:01:24.057Z,10.99
2017-03-19T05:02:04.573Z,10.89
2017-03-19T05:02:45.096Z,10.97
2017-03-19T05:03:25.604Z,10.86
2017-03-19T05:04:06.137Z,10.99
2017-03-19T05:04:46.656Z,10.94
2017-03-19T05:05:27.168Z,10.92
2017-03-19T05:06:09.664Z,10.86
2017-03-19T05:06:50.190Z,10.96
2017-03-19T05:07:30.711Z,10.96
2017-03-19T05:08:11.248Z,10.97
2017-03-19T05:08:51.735Z,10.99
2017-03-19T05:09:32.291Z,10.99
2017-03-19T05:10:12.822Z,11
2017-03-19T05:10:53.346Z,10.94
2017-03-19T05:11:33.836Z,11.03
2017-03-19T05:12:14.363Z,10.94
2017-03-19T05:12:54.888Z,10.99
2017-03-19T05:13:35.394Z,11.03
2017-03-19T05:14:15.913Z,11.02
2017-03-19T05:14:56.408Z,11.02
2017-03-19T05:15:36.990Z,11.02
2017-03-19T05:16:17.538Z,10.97
2017-03-19T05:16:58.052Z,10.94
2017-03-19T05:17:38.583Z,10.97
2017-03-19T05:18:19.205Z,10.99
2017-03-19T05:18:59.722Z,10.94
2017-03-19T05:19:40.241Z,10.91
2017-03-19T05:20:20.749Z,10.92
2017-03-19T05:21:01.266Z,10.99
2017-03-19T05:21:41.785Z,10.96
2017-03-19T05:22:22.383Z,10.97
2017-03-19T05:23:02.878Z,10.96
2017-03-19T05:23:43.399Z,11
2017-03-19T05:24:23.923Z,10.96
2017-03-19T05:25:04.431Z,10.92
2017-03-19T05:25:44.947Z,10.96
2017-03-19T05:26:25.466Z,10.92
2017-03-19T05:27:05.966Z,11
2017-03-19T05:27:46.493Z,10.99
2017-03-19T05:28:26.987Z,10.92
2017-03-19T05:29:07.511Z,10.96
2017-03-19T05:29:48.061Z,11
2017-03-19T05:30:28.580Z,10.88
2017-03-19T05:31:09.085Z,10.94
2017-03-19T05:31:49.599Z,10.96
2017-03-19T05:32:30.148Z,10.92
2017-03-19T05:33:10.631Z,10.92
2017-03-19T05:33:51.134Z,10.97
2017-03-19T05:34:31.649Z,10.92
2017-03-19T05:35:12.145Z,11.02
2017-03-19T05:35:52.651Z,10.97
2017-03-19T05:36:33.154Z,10.97
2017-03-19T05:37:13.679Z,10.96
2017-03-19T05:37:54.194Z,10.96
2017-03-19T05:38:34.702Z,10.99
2017-03-19T05:39:15.217Z,10.94
2017-03-19T05:39:55.731Z,11.02
2017-03-19T05:40:36.286Z,10.91
2017-03-19T05:41:16.785Z,10.99
2017-03-19T05:41:57.287Z,10.91
2017-03-19T05:42:37.802Z,10.99
2017-03-19T05:43:18.303Z,10.91
2017-03-19T05:43:58.852Z,10.99
2017-03-19T05:44:39.360Z,10.96
2017-03-19T05:45:19.871Z,10.99
2017-03-19T05:46:00.377Z,10.99
2017-03-19T05:46:40.935Z,10.99
2017-03-19T05:47:21.446Z,10.96
2017-03-19T05:48:01.954Z,10.94
2017-03-19T05:48:42.469Z,10.92
2017-03-19T05:49:22.968Z,10.92
2017-03-19T05:50:03.477Z,10.85
2017-03-19T05:50:43.994Z,10.91
2017-03-19T05:51:24.507Z,10.96
2017-03-19T05:52:05.010Z,10.92
2017-03-19T05:52:45.531Z,10.96
2017-03-19T05:53:26.063Z,11.03
2017-03-19T05:54:06.577Z,10.99
2017-03-19T05:54:47.073Z,10.97
2017-03-19T05:55:27.614Z,10.94
2017-03-19T05:56:08.136Z,11
2017-03-19T05:56:48.651Z,10.99
2017-03-19T05:57:29.142Z,10.96
2017-03-19T05:58:09.652Z,10.94
2017-03-19T05:58:50.150Z,10.91
2017-03-19T05:59:30.648Z,10.92
2017-03-19T06:00:11.153Z,10.82
2017-03-19T06:00:51.655Z,10.86
2017-03-19T06:01:32.171Z,10.79
2017-03-19T06:02:12.681Z,10.86
2017-03-19T06:02:53.197Z,10.89
2017-03-19T06:03:33.719Z,10.84
2017-03-19T06:04:14.215Z,10.92
2017-03-19T06:04:54.786Z,10.91
2017-03-19T06:05:35.294Z,10.88
2017-03-19T06:06:15.770Z,10.88
2017-03-19T06:06:56.348Z,10.92
2017-03-19T06:07:36.857Z,10.85
2017-03-19T06:08:17.372Z,10.85
2017-03-19T06:08:57.892Z,10.84
2017-03-19T06:09:38.410Z,10.85
2017-03-19T06:10:18.914Z,10.96
2017-03-19T06:10:59.421Z,10.91
2017-03-19T06:11:39.930Z,10.97
2017-03-19T06:12:20.439Z,10.91
2017-03-19T06:13:00.952Z,10.94
2017-03-19T06:13:41.472Z,10.86
2017-03-19T06:14:21.996Z,10.92
2017-03-19T06:15:02.512Z,10.92
2017-03-19T06:15:43.020Z,10.97
2017-03-19T06:16:23.545Z,11.02
2017-03-19T06:17:04.036Z,10.94
2017-03-19T06:17:44.551Z,10.91
2017-03-19T06:18:25.062Z,10.96
2017-03-19T06:19:05.642Z,10.94
2017-03-19T06:19:46.189Z,10.92
2017-03-19T06:20:26.720Z,10.96
2017-03-19T06:21:07.353Z,10.97
2017-03-19T06:21:47.845Z,10.89
2017-03-19T06:22:28.459Z,10.99
2017-03-19T06:23:08.964Z,11
2017-03-19T06:23:49.519Z,10.99
2017-03-19T06:24:30.058Z,10.97
2017-03-19T06:25:10.590Z,10.92
2017-03-19T06:25:51.047Z,10.99
2017-03-19T06:26:31.545Z,10.84
2017-03-19T06:27:12.046Z,10.97
2017-03-19T06:27:52.646Z,10.99
2017-03-19T06:28:33.150Z,10.86
2017-03-19T06:29:13.696Z,10.82
2017-03-19T06:29:54.266Z,10.85
2017-03-19T06:30:34.795Z,10.89
2017-03-19T06:31:15.429Z,10.89
2017-03-19T06:31:55.934Z,10.89
2017-03-19T06:32:36.515Z,10.88
2017-03-19T06:33:17.102Z,10.86
2017-03-19T06:33:57.755Z,10.85
2017-03-19T06:34:38.298Z,10.85
2017-03-19T06:35:18.862Z,10.85
2017-03-19T06:35:59.463Z,10.89
2017-03-19T06:36:39.966Z,10.85
2017-03-19T06:37:20.538Z,10.89
2017-03-19T06:38:01.054Z,10.89
2017-03-19T06:38:41.578Z,10.84
2017-03-19T06:39:22.056Z,10.88
2017-03-19T06:40:02.628Z,10.89
2017-03-19T06:40:43.240Z,10.88
2017-03-19T06:41:23.734Z,10.92
2017-03-19T06:42:04.250Z,10.88
2017-03-19T06:42:45.049Z,10.86
2017-03-19T06:43:25.758Z,10.88
2017-03-19T06:44:06.585Z,10.85
2017-03-19T06:44:47.153Z,10.92
2017-03-19T06:45:27.807Z,10.94
2017-03-19T06:46:10.528Z,10.85
2017-03-19T06:46:52.246Z,10.92
2017-03-19T06:47:34.067Z,10.96
2017-03-19T06:48:15.573Z,10.99
2017-03-19T06:48:56.190Z,10.92
2017-03-19T06:49:36.866Z,10.96
2017-03-19T06:50:17.407Z,10.92
2017-03-19T06:50:58.055Z,10.96
2017-03-19T06:51:38.605Z,10.96
2017-03-19T06:52:19.344Z,10.94
2017-03-19T06:52:59.895Z,10.96
2017-03-19T06:53:40.657Z,10.97
2017-03-19T06:54:21.259Z,11
2017-03-19T06:55:01.749Z,11.03
2017-03-19T06:55:42.294Z,10.99
2017-03-19T06:56:22.885Z,11
2017-03-19T06:57:03.567Z,11.06
2017-03-19T06:57:44.120Z,11.07
2017-03-19T06:58:24.664Z,11.06
2017-03-19T06:59:05.837Z,11.06
2017-03-19T06:59:46.356Z,11.07
2017-03-19T07:00:26.857Z,11.14
2017-03-19T07:01:07.403Z,11.07
2017-03-19T07:01:47.958Z,11.06
2017-03-19T07:02:28.498Z,11.18
2017-03-19T07:03:09.152Z,11.07
2017-03-19T07:03:49.652Z,11.09
2017-03-19T07:04:30.208Z,11.1
2017-03-19T07:05:10.705Z,11.22
2017-03-19T07:05:51.283Z,11.22
2017-03-19T07:06:31.782Z,11.18
2017-03-19T07:07:12.330Z,11.22
2017-03-19T07:07:52.960Z,11.24
2017-03-19T07:08:33.404Z,11.19
2017-03-19T07:09:13.910Z,11.24
2017-03-19T07:09:54.601Z,11.25
2017-03-19T07:10:35.194Z,11.27
2017-03-19T07:11:15.769Z,11.28
2017-03-19T07:11:56.378Z,11.24
2017-03-19T07:12:36.952Z,11.21
2017-03-19T07:13:17.603Z,11.25
2017-03-19T07:13:58.109Z,11.28
2017-03-19T07:14:38.651Z,11.24
2017-03-19T07:15:19.276Z,11.24
2017-03-19T07:15:59.869Z,11.27
2017-03-19T07:16:40.443Z,11.32
2017-03-19T07:17:21.008Z,11.32
2017-03-19T07:18:01.544Z,11.35
2017-03-19T07:18:42.105Z,11.32
2017-03-19T07:19:22.668Z,11.29
2017-03-19T07:20:03.241Z,11.28
2017-03-19T07:20:43.875Z,11.37
2017-03-19T07:21:24.456Z,11.32
2017-03-19T07:22:05.024Z,11.32
2017-03-19T07:22:45.550Z,11.33
2017-03-19T07:23:26.140Z,11.39
2017-03-19T07:24:06.672Z,11.4
2017-03-19T07:24:47.245Z,11.37
2017-03-19T07:25:27.805Z,11.39
2017-03-19T07:26:08.315Z,11.35
2017-03-19T07:26:48.838Z,11.4
2017-03-19T07:27:29.414Z,11.37
2017-03-19T07:28:09.936Z,11.42
2017-03-19T07:28:50.530Z,11.43
2017-03-19T07:29:31.021Z,11.42
2017-03-19T07:30:11.543Z,11.44
2017-03-19T07:30:52.114Z,11.42
2017-03-19T07:31:32.568Z,11.4
2017-03-19T07:32:13.093Z,11.47
2017-03-19T07:32:53.626Z,11.54
2017-03-19T07:33:34.124Z,11.52
2017-03-19T07:34:14.672Z,11.57
2017-03-19T07:34:55.206Z,11.52
2017-03-19T07:35:35.837Z,11.52
2017-03-19T07:36:16.322Z,11.51
2017-03-19T07:36:56.936Z,11.58
2017-03-19T07:37:37.424Z,11.58
2017-03-19T07:38:17.941Z,11.61
2017-03-19T07:38:58.418Z,11.62
2017-03-19T07:39:38.969Z,11.58
2017-03-19T07:40:19.525Z,11.65
2017-03-19T07:41:00.028Z,11.65
2017-03-19T07:41:40.561Z,11.67
2017-03-19T07:42:21.143Z,11.69
2017-03-19T07:43:01.798Z,11.78
2017-03-19T07:43:42.352Z,11.73
2017-03-19T07:44:22.906Z,11.73
2017-03-19T07:45:03.743Z,11.73
2017-03-19T07:45:44.234Z,11.69
2017-03-19T07:46:24.783Z,11.78
2017-03-19T07:47:05.380Z,11.69
2017-03-19T07:47:45.959Z,11.69
2017-03-19T07:48:26.659Z,11.83
2017-03-19T07:49:07.278Z,11.79
2017-03-19T07:49:47.922Z,11.72
2017-03-19T07:50:28.398Z,11.8
2017-03-19T07:51:08.981Z,11.79
2017-03-19T07:51:49.525Z,11.82
2017-03-19T07:52:30.103Z,11.86
2017-03-19T07:53:10.760Z,11.86
2017-03-19T07:53:51.298Z,11.8
2017-03-19T07:54:31.872Z,11.76
2017-03-19T07:55:12.540Z,11.79
2017-03-19T07:55:53.239Z,11.86
2017-03-19T07:56:33.776Z,11.82
2017-03-19T07:57:14.423Z,11.83
2017-03-19T07:57:54.981Z,11.83
2017-03-19T07:58:35.917Z,11.83
2017-03-19T07:59:16.825Z,11.83
2017-03-19T07:59:57.440Z,11.75
2017-03-19T08:00:38.132Z,11.76
2017-03-19T08:01:18.735Z,11.73
2017-03-19T08:01:59.356Z,11.82
2017-03-19T08:02:39.934Z,11.8
2017-03-19T08:03:20.486Z,11.76
2017-03-19T08:04:01.087Z,11.82
2017-03-19T08:04:41.646Z,11.82
2017-03-19T08:05:22.294Z,11.86
2017-03-19T08:06:03.026Z,11.88
2017-03-19T08:06:43.781Z,11.8
2017-03-19T08:07:24.420Z,11.83
2017-03-19T08:08:06.200Z,11.91
2017-03-19T08:08:46.739Z,11.9
2017-03-19T08:09:27.244Z,11.9
2017-03-19T08:10:07.807Z,11.94
2017-03-19T08:10:48.483Z,11.85
2017-03-19T08:11:29.104Z,11.9
2017-03-19T08:12:09.651Z,11.83
2017-03-19T08:12:50.287Z,11.86
2017-03-19T08:13:30.973Z,11.96
2017-03-19T08:14:11.603Z,11.91
2017-03-19T08:14:52.313Z,11.91
2017-03-19T08:15:33.326Z,11.94
2017-03-19T08:16:13.902Z,11.95
2017-03-19T08:16:54.510Z,11.9
2017-03-19T08:17:35.202Z,11.91
2017-03-19T08:18:15.751Z,11.94
2017-03-19T08:18:56.586Z,11.94
2017-03-19T08:19:37.793Z,11.91
2017-03-19T08:20:18.378Z,11.94
2017-03-19T08:20:59.132Z,12.01
2017-03-19T08:21:39.793Z,12.04
2017-03-19T08:22:20.373Z,12.12
2017-03-19T08:23:01.010Z,12.09
2017-03-19T08:23:41.604Z,12.01
2017-03-19T08:24:22.334Z,12.07
2017-03-19T08:25:02.953Z,12.02
2017-03-19T08:25:43.622Z,12.17
2017-03-19T08:26:24.362Z,12.09
2017-03-19T08:27:04.993Z,12.07
2017-03-19T08:27:45.549Z,12.02
2017-03-19T08:28:26.226Z,12.07
2017-03-19T08:29:06.757Z,12.02
2017-03-19T08:29:47.315Z,12.13
2017-03-19T08:30:27.847Z,12.1
2017-03-19T08:31:08.402Z,12.13
2017-03-19T08:31:48.995Z,12.19
2017-03-19T08:32:29.515Z,12.17
2017-03-19T08:33:10.040Z,12.16
2017-03-19T08:33:50.521Z,12.17
2017-03-19T08:34:31.040Z,12.21
2017-03-19T08:35:11.614Z,12.21
2017-03-19T08:35:52.164Z,12.21
2017-03-19T08:36:32.780Z,12.2
2017-03-19T08:37:13.303Z,12.2
2017-03-19T08:37:53.838Z,12.35
2017-03-19T08:38:34.448Z,12.34
2017-03-19T08:39:14.902Z,12.35
2017-03-19T08:39:55.459Z,12.31
2017-03-19T08:40:36.006Z,12.31
2017-03-19T08:41:16.543Z,12.34
2017-03-19T08:41:57.118Z,12.31
2017-03-19T08:42:37.714Z,12.27
2017-03-19T08:43:18.349Z,12.31
2017-03-19T08:43:58.893Z,12.34